Time;durP1;ratioP1;P1;durP2;ratioP2;P2;SDS_P1;SDS_P2;PMS_P1;PMS_P2;Temp;Humidity;BMP_temperature;BMP_pressure;BME280_temperature;BME280_humidity;BME280_pressure;Samples;Min_cycle;Max_cycle;Signal;HPM_P1;HPM_P2
2023/06/22 00:01:38;;;;;;;18.10;14.60;;;;;;;20.17;100.00;100749.67;223293;1264;141518;-88
2023/06/22 00:06:38;;;;;;;18.70;15.70;;;;;;;20.11;100.00;100751.81;223765;1264;139029;-87
2023/06/22 00:11:39;;;;;;;18.30;14.30;;;;;;;20.02;100.00;100759.80;223063;1267;142005;-87
2023/06/22 00:16:39;;;;;;;17.60;14.20;;;;;;;19.94;100.00;100761.16;223774;1264;139384;-87
2023/06/22 00:21:39;;;;;;;15.30;12.90;;;;;;;19.90;100.00;100768.69;223235;1263;141611;-88
2023/06/22 00:26:40;;;;;;;15.60;12.80;;;;;;;19.87;100.00;100780.72;223634;1264;139584;-88
2023/06/22 00:31:40;;;;;;;24.70;15.90;;;;;;;19.80;100.00;100792.91;223365;1264;144659;-87
2023/06/22 00:36:41;;;;;;;19.70;15.70;;;;;;;19.74;100.00;100800.45;223634;1263;139153;-87
2023/06/22 00:41:41;;;;;;;15.10;11.70;;;;;;;19.66;100.00;100798.08;223314;1264;141903;-87
2023/06/22 00:46:41;;;;;;;21.80;15.30;;;;;;;19.60;100.00;100797.71;223855;1264;140112;-87
2023/06/22 00:51:45;;;;;;;16.00;12.60;;;;;;;19.56;100.00;100800.34;223353;1264;143887;-88
2023/06/22 00:56:46;;;;;;;19.10;14.00;;;;;;;19.51;100.00;100799.02;222577;1264;139618;-86
2023/06/22 01:01:46;;;;;;;17.10;13.20;;;;;;;19.47;100.00;100800.14;223074;1264;141784;-87
2023/06/22 01:07:05;;;;;;;17.00;12.40;;;;;;;19.41;100.00;100800.33;223785;1264;96402;-87
2023/06/22 01:12:09;;;;;;;19.30;15.60;;;;;;;19.36;100.00;100799.48;223258;1263;141916;-87
2023/06/22 01:17:12;;;;;;;16.30;12.80;;;;;;;19.30;100.00;100797.34;223833;1264;139700;-87
2023/06/22 01:22:16;;;;;;;17.60;13.70;;;;;;;19.21;100.00;100794.70;223315;1264;141286;-87
2023/06/22 01:27:28;;;;;;;19.10;14.80;;;;;;;19.14;100.00;100798.33;223797;1263;139982;-87
2023/06/22 01:32:34;;;;;;;22.40;15.60;;;;;;;19.08;100.00;100802.98;223244;1264;143472;-88
2023/06/22 01:37:36;;;;;;;19.50;14.20;;;;;;;19.03;100.00;100808.09;223944;1263;106064;-87
2023/06/22 01:42:38;;;;;;;17.30;13.40;;;;;;;18.97;100.00;100811.71;223326;1264;140933;-87
2023/06/22 01:47:39;;;;;;;14.90;11.30;;;;;;;18.92;100.00;100825.65;223823;1263;140296;-87
2023/06/22 01:52:39;;;;;;;15.80;11.50;;;;;;;18.89;100.00;100824.91;223180;1264;141949;-88
2023/06/22 01:57:40;;;;;;;17.70;14.20;;;;;;;18.85;100.00;100819.56;223583;1264;139771;-87
2023/06/22 02:02:46;;;;;;;20.50;16.10;;;;;;;18.81;100.00;100814.60;223318;1263;141645;-87
2023/06/22 02:08:01;;;;;;;18.20;14.40;;;;;;;18.79;100.00;100814.31;223868;1263;139558;-87
2023/06/22 02:13:04;;;;;;;17.50;13.90;;;;;;;18.75;100.00;100823.07;223195;1264;141492;-87
2023/06/22 02:18:05;;;;;;;18.20;14.10;;;;;;;18.70;100.00;100831.90;223699;1264;139958;-87
2023/06/22 02:23:06;;;;;;;19.20;14.80;;;;;;;18.65;100.00;100836.35;223177;1264;141911;-87
2023/06/22 02:28:07;;;;;;;14.40;11.60;;;;;;;18.61;100.00;100845.34;223773;1264;139556;-87
2023/06/22 02:33:07;;;;;;;21.00;12.50;;;;;;;18.57;100.00;100855.35;223299;1263;141047;-85
2023/06/22 02:38:08;;;;;;;17.10;11.10;;;;;;;18.53;100.00;100860.05;223823;1264;139621;-84
2023/06/22 02:43:08;;;;;;;17.00;11.30;;;;;;;18.49;100.00;100859.05;222343;1263;141645;-86
2023/06/22 02:48:10;;;;;;;14.00;10.30;;;;;;;18.45;100.00;100876.08;223419;1264;139454;-86
2023/06/22 02:53:10;;;;;;;15.40;10.60;;;;;;;18.41;100.00;100871.91;223100;1264;141671;-86
2023/06/22 02:58:10;;;;;;;14.70;10.70;;;;;;;18.38;100.00;100870.92;223805;1263;139488;-85
2023/06/22 03:03:11;;;;;;;15.00;11.00;;;;;;;18.36;100.00;100864.51;222995;1264;143111;-86
2023/06/22 03:08:11;;;;;;;13.50;9.80;;;;;;;18.33;100.00;100863.74;223876;1264;139324;-86
2023/06/22 03:13:12;;;;;;;14.70;10.80;;;;;;;18.32;100.00;100873.05;223396;1263;140829;-86
2023/06/22 03:18:12;;;;;;;16.50;11.10;;;;;;;18.28;100.00;100875.41;223763;1264;139482;-86
2023/06/22 03:23:13;;;;;;;14.90;10.60;;;;;;;18.26;100.00;100877.42;223246;1264;141036;-86
2023/06/22 03:28:13;;;;;;;16.00;11.20;;;;;;;18.25;100.00;100873.64;223800;1263;139678;-85
2023/06/22 03:33:13;;;;;;;15.20;10.30;;;;;;;18.24;100.00;100877.77;223015;1263;142610;-86
2023/06/22 03:38:14;;;;;;;14.80;10.20;;;;;;;18.24;100.00;100882.23;223648;1263;139514;-86
2023/06/22 03:43:14;;;;;;;14.60;10.40;;;;;;;18.23;100.00;100878.98;223368;1263;142064;-86
2023/06/22 03:48:14;;;;;;;13.00;9.30;;;;;;;18.23;100.00;100884.56;223726;1264;139734;-86
2023/06/22 03:53:15;;;;;;;14.70;9.70;;;;;;;18.22;100.00;100882.18;223061;1264;141071;-86
2023/06/22 03:58:16;;;;;;;16.40;11.00;;;;;;;18.20;100.00;100880.20;223749;1264;139619;-85
2023/06/22 04:03:20;;;;;;;14.60;9.80;;;;;;;18.20;100.00;100891.20;223130;1264;142312;-85
2023/06/22 04:08:21;;;;;;;14.40;9.20;;;;;;;18.21;100.00;100903.99;223808;1264;139642;-85
2023/06/22 04:13:21;;;;;;;17.60;10.10;;;;;;;18.23;100.00;100913.92;223379;1265;143200;-86
2023/06/22 04:18:22;;;;;;;16.70;9.70;;;;;;;18.26;100.00;100922.41;223630;1264;139604;-85
2023/06/22 04:23:22;;;;;;;17.20;9.70;;;;;;;18.28;100.00;100924.37;223248;1264;141290;-85
2023/06/22 04:28:22;;;;;;;17.30;9.60;;;;;;;18.32;100.00;100928.25;223769;1264;139446;-84
2023/06/22 04:33:23;;;;;;;13.90;8.80;;;;;;;18.37;100.00;100927.48;221972;1264;141085;-85
2023/06/22 04:38:25;;;;;;;14.90;9.30;;;;;;;18.40;100.00;100929.58;223803;1263;140009;-84
2023/06/22 04:43:25;;;;;;;13.90;9.40;;;;;;;18.46;100.00;100934.30;223281;1263;142192;-84
2023/06/22 04:48:32;;;;;;;13.50;8.10;;;;;;;18.51;100.00;100932.95;223762;1263;139853;-84
2023/06/22 04:53:33;;;;;;;14.00;8.00;;;;;;;18.59;100.00;100929.98;223165;1264;141286;-84
2023/06/22 04:58:33;;;;;;;11.50;7.40;;;;;;;18.67;100.00;100930.73;223764;1264;140287;-85
2023/06/22 05:03:36;;;;;;;10.70;6.50;;;;;;;18.77;100.00;100932.19;223144;1264;141148;-85
2023/06/22 05:08:37;;;;;;;11.70;6.40;;;;;;;18.87;100.00;100933.95;223711;1264;139316;-84
2023/06/22 05:13:37;;;;;;;10.00;5.40;;;;;;;18.98;100.00;100931.33;223352;1264;141538;-85
2023/06/22 05:18:38;;;;;;;8.60;5.10;;;;;;;19.13;100.00;100926.30;223562;1267;139607;-85
2023/06/22 05:23:38;;;;;;;9.60;4.80;;;;;;;19.36;100.00;100931.53;223184;1265;140670;-85
2023/06/22 05:28:38;;;;;;;9.40;4.70;;;;;;;19.68;100.00;100928.65;223569;1264;139282;-85
2023/06/22 05:33:40;;;;;;;11.60;4.60;;;;;;;20.11;100.00;100930.66;223234;1264;142456;-84
2023/06/22 05:38:41;;;;;;;10.90;4.40;;;;;;;20.56;100.00;100927.71;223787;1264;139113;-85
2023/06/22 05:43:42;;;;;;;8.60;5.00;;;;;;;21.03;100.00;100926.27;223157;1264;141069;-86
2023/06/22 05:48:42;;;;;;;12.10;5.40;;;;;;;21.54;100.00;100924.36;223854;1264;96606;-87
2023/06/22 05:53:44;;;;;;;11.00;4.50;;;;;;;22.03;99.97;100932.84;223132;1265;140409;-86
2023/06/22 05:58:46;;;;;;;14.10;5.00;;;;;;;22.59;99.28;100943.02;223567;1264;140364;-87
2023/06/22 06:03:46;;;;;;;8.80;4.90;;;;;;;23.18;97.14;100949.10;223201;1264;140539;-86
2023/06/22 06:08:47;;;;;;;12.30;4.70;;;;;;;23.81;94.62;100942.98;223758;1264;139431;-87
2023/06/22 06:13:47;;;;;;;12.00;6.00;;;;;;;24.36;92.08;100943.67;223012;1264;142087;-85
2023/06/22 06:18:50;;;;;;;10.70;5.10;;;;;;;24.85;89.64;100948.21;222726;1267;105955;-85
2023/06/22 06:23:51;;;;;;;12.20;4.80;;;;;;;25.37;88.10;100953.55;222693;1264;140366;-85
2023/06/22 06:28:51;;;;;;;10.20;4.50;;;;;;;25.87;86.18;100949.79;223129;1264;140303;-85
2023/06/22 06:33:53;;;;;;;11.70;4.70;;;;;;;26.38;83.40;100946.46;223535;1264;139062;-85
2023/06/22 06:38:54;;;;;;;7.70;3.40;;;;;;;26.84;80.57;100952.89;222905;1267;140900;-85
2023/06/22 06:43:54;;;;;;;6.60;3.20;;;;;;;27.30;77.76;100955.77;223584;1265;139414;-85
2023/06/22 06:48:55;;;;;;;6.70;3.40;;;;;;;27.67;76.07;100956.48;223289;1264;141342;-86
2023/06/22 06:53:55;;;;;;;6.10;2.80;;;;;;;28.11;73.31;100956.91;223783;1264;138571;-86
2023/06/22 06:58:56;;;;;;;8.60;3.70;;;;;;;28.33;70.97;100964.66;223185;1263;140748;-86
2023/06/22 07:03:56;;;;;;;10.20;3.80;;;;;;;28.62;70.02;100964.46;223704;1265;139409;-85
2023/06/22 07:08:56;;;;;;;7.50;3.90;;;;;;;28.83;68.63;100971.95;223206;1265;140398;-87
2023/06/22 07:13:57;;;;;;;8.50;3.70;;;;;;;29.18;67.15;100969.15;223745;1264;138441;-86
2023/06/22 07:18:57;;;;;;;9.70;3.60;;;;;;;29.49;65.17;100966.58;223325;1265;139988;-86
2023/06/22 07:23:58;;;;;;;12.60;4.90;;;;;;;29.78;64.48;100966.77;223562;1264;138135;-85
2023/06/22 07:28:58;;;;;;;9.90;4.50;;;;;;;29.97;63.49;100969.21;223126;1264;140832;-87
2023/06/22 07:33:58;;;;;;;9.50;4.60;;;;;;;30.25;62.96;100958.64;223707;1264;138814;-86
2023/06/22 07:38:59;;;;;;;10.00;4.10;;;;;;;30.57;60.52;100953.88;223225;1264;141898;-87
2023/06/22 07:43:59;;;;;;;8.90;3.90;;;;;;;30.90;59.04;100952.84;223688;1265;139502;-87
2023/06/22 07:49:01;;;;;;;8.50;4.00;;;;;;;31.21;58.16;100956.27;223313;1264;140809;-86
2023/06/22 07:54:01;;;;;;;8.10;4.20;;;;;;;31.47;56.99;100950.14;223711;1265;138186;-86
2023/06/22 07:59:03;;;;;;;7.50;4.20;;;;;;;31.85;56.38;100951.85;223122;1263;140083;-86
2023/06/22 08:04:05;;;;;;;17.20;4.40;;;;;;;32.30;55.59;100957.42;223515;1263;138226;-87
2023/06/22 08:09:06;;;;;;;13.20;5.30;;;;;;;32.83;53.62;100959.24;221967;1264;140983;-86
2023/06/22 08:14:06;;;;;;;8.60;4.90;;;;;;;33.20;51.30;100953.34;223530;1264;139969;-86
2023/06/22 08:19:07;;;;;;;8.00;4.10;;;;;;;33.38;50.53;100955.18;223059;1266;141081;-86
2023/06/22 08:24:07;;;;;;;9.00;3.30;;;;;;;33.63;49.09;100951.40;223564;1263;138382;-86
2023/06/22 08:29:08;;;;;;;7.80;3.40;;;;;;;34.21;47.47;100944.94;223216;1264;140162;-86
2023/06/22 08:34:09;;;;;;;7.90;3.20;;;;;;;34.72;45.72;100943.70;223677;1265;138299;-87
2023/06/22 08:39:09;;;;;;;99.40;9.90;;;;;;;35.20;44.41;100948.71;223141;1265;141878;-82
2023/06/22 08:44:10;;;;;;;7.90;3.70;;;;;;;35.52;44.09;100949.91;223763;1263;138709;-83
2023/06/22 08:49:11;;;;;;;6.50;3.10;;;;;;;35.74;42.76;100950.45;223236;1266;140365;-84
2023/06/22 08:54:11;;;;;;;6.30;3.20;;;;;;;36.20;42.63;100950.80;223519;1266;139458;-83
2023/06/22 08:59:11;;;;;;;5.80;3.20;;;;;;;36.80;40.42;100950.92;223217;1264;140318;-85
2023/06/22 09:04:12;;;;;;;7.40;3.40;;;;;;;37.07;39.42;100942.67;223732;1265;138295;-84
2023/06/22 09:09:13;;;;;;;5.10;2.90;;;;;;;37.37;38.39;100932.55;223169;1264;140301;-84
2023/06/22 09:14:13;;;;;;;6.40;2.90;;;;;;;37.67;37.66;100916.20;223544;1264;138779;-84
2023/06/22 09:19:14;;;;;;;7.10;3.10;;;;;;;38.03;36.48;100909.02;223296;1264;142382;-83
2023/06/22 09:24:14;;;;;;;4.50;2.50;;;;;;;38.31;35.94;100910.09;223697;1265;138484;-85
2023/06/22 09:29:15;;;;;;;5.40;3.00;;;;;;;38.32;34.76;100916.63;222981;1263;159105;-85
2023/06/22 09:34:20;;;;;;;5.20;2.50;;;;;;;38.62;34.29;100903.16;223587;1264;138227;-86
2023/06/22 09:39:20;;;;;;;6.80;3.10;;;;;;;38.82;32.65;100896.08;223194;1263;141066;-84
2023/06/22 09:44:21;;;;;;;6.70;3.40;;;;;;;39.08;32.51;100896.34;223500;1264;138246;-84
2023/06/22 09:49:21;;;;;;;4.70;2.50;;;;;;;39.13;32.32;100891.27;223137;1264;142312;-84
2023/06/22 09:54:23;;;;;;;4.30;2.40;;;;;;;39.29;31.91;100889.95;222754;1266;137976;-85
2023/06/22 09:59:23;;;;;;;4.80;2.60;;;;;;;39.57;31.48;100890.81;222635;1264;140174;-83
2023/06/22 10:04:24;;;;;;;5.30;2.90;;;;;;;39.86;31.07;100886.98;223690;1265;137571;-85
2023/06/22 10:09:24;;;;;;;7.50;3.00;;;;;;;40.19;30.28;100885.04;223136;1266;140711;-84
2023/06/22 10:14:27;;;;;;;4.70;2.70;;;;;;;40.40;30.51;100888.08;223716;1264;138220;-84
2023/06/22 10:19:27;;;;;;;5.50;3.30;;;;;;;40.61;29.94;100895.02;223256;1265;141731;-84
2023/06/22 10:24:27;;;;;;;5.80;3.00;;;;;;;40.79;29.66;100886.36;223697;1264;139620;-84
2023/06/22 10:29:28;;;;;;;4.70;2.90;;;;;;;40.98;29.39;100873.91;223114;1264;140018;-85
2023/06/22 10:34:28;;;;;;;6.00;3.00;;;;;;;41.18;29.20;100873.21;223554;1266;139521;-84
2023/06/22 10:39:28;;;;;;;6.60;2.80;;;;;;;41.26;28.47;100879.27;223164;1263;142115;-84
2023/06/22 10:44:29;;;;;;;7.70;3.60;;;;;;;41.11;28.32;100885.96;223538;1264;138329;-84
2023/06/22 10:49:29;;;;;;;4.90;3.40;;;;;;;41.20;28.57;100880.59;223328;1266;140693;-83
2023/06/22 10:54:29;;;;;;;5.00;3.30;;;;;;;41.33;28.37;100870.58;223759;1264;137962;-84
2023/06/22 10:59:30;;;;;;;7.40;3.10;;;;;;;41.62;28.22;100871.73;223210;1263;140117;-85
2023/06/22 11:04:32;;;;;;;5.10;3.40;;;;;;;41.73;27.74;100870.80;223728;1264;138389;-83
2023/06/22 11:09:33;;;;;;;5.20;3.30;;;;;;;41.32;27.80;100865.70;222956;1263;139965;-84
2023/06/22 11:14:33;;;;;;;6.10;3.50;;;;;;;41.21;28.34;100859.33;223752;1264;139236;-84
2023/06/22 11:19:34;;;;;;;4.70;3.40;;;;;;;41.24;27.73;100846.49;223236;1267;140246;-84
2023/06/22 11:24:34;;;;;;;6.20;3.70;;;;;;;41.21;26.54;100835.11;223715;1267;137906;-84
2023/06/22 11:29:35;;;;;;;4.90;3.20;;;;;;;40.91;27.33;100826.79;223213;1264;141620;-84
2023/06/22 11:34:36;;;;;;;7.50;3.60;;;;;;;41.05;26.90;100827.46;223723;1263;139093;-84
2023/06/22 11:39:36;;;;;;;5.40;3.60;;;;;;;41.16;27.76;100823.59;222668;1263;142073;-84
2023/06/22 11:44:36;;;;;;;7.60;3.60;;;;;;;41.19;27.32;100827.24;223129;1263;138319;-84
2023/06/22 11:49:37;;;;;;;5.80;3.60;;;;;;;41.06;27.85;100825.20;223221;1263;141306;-83
2023/06/22 11:54:38;;;;;;;5.40;3.70;;;;;;;40.80;26.82;100813.44;223697;1264;137972;-82
2023/06/22 11:59:38;;;;;;;7.20;3.50;;;;;;;40.55;27.54;100805.70;223066;1268;140436;-83
2023/06/22 12:04:39;;;;;;;5.90;3.70;;;;;;;40.68;28.17;100806.96;223752;1263;138487;-82
2023/06/22 12:09:39;;;;;;;5.40;3.80;;;;;;;40.84;27.80;100803.56;223113;1264;140042;-83
2023/06/22 12:14:39;;;;;;;6.00;3.80;;;;;;;40.80;26.75;100804.60;223512;1264;138222;-84
2023/06/22 12:19:40;;;;;;;5.40;3.40;;;;;;;40.20;26.96;100798.36;223240;1263;140736;-84
2023/06/22 12:24:40;;;;;;;5.60;3.70;;;;;;;39.75;26.92;100797.22;223713;1263;138878;-83
2023/06/22 12:29:41;;;;;;;5.20;3.60;;;;;;;39.48;27.17;100799.98;223187;1263;141149;-83
2023/06/22 12:34:43;;;;;;;4.90;3.10;;;;;;;39.25;27.26;100793.64;223658;1266;138413;-83
2023/06/22 12:39:44;;;;;;;7.80;3.50;;;;;;;39.32;28.14;100781.45;223190;1264;139892;-82
2023/06/22 12:44:45;;;;;;;5.30;3.80;;;;;;;39.27;28.93;100773.23;223634;1265;139185;-82
2023/06/22 12:49:45;;;;;;;5.40;3.30;;;;;;;39.33;28.13;100770.23;223129;1267;139993;-83
2023/06/22 12:54:45;;;;;;;6.40;3.70;;;;;;;38.89;28.02;100762.25;223823;1264;96215;-84
2023/06/22 12:59:46;;;;;;;7.40;3.60;;;;;;;38.59;28.80;100767.64;223161;1264;140974;-82
2023/06/22 13:04:46;;;;;;;6.90;3.70;;;;;;;38.45;28.76;100761.38;223661;1267;138543;-82
2023/06/22 13:09:51;;;;;;;6.40;4.10;;;;;;;38.34;29.52;100758.55;223044;1265;141582;-83
2023/06/22 13:14:51;;;;;;;7.60;4.40;;;;;;;38.25;29.09;100752.14;223358;1267;138503;-83
2023/06/22 13:19:52;;;;;;;6.10;3.90;;;;;;;37.82;27.96;100740.23;223118;1265;140805;-82
2023/06/22 13:24:52;;;;;;;6.70;4.10;;;;;;;37.54;30.18;100733.73;223856;1268;96584;-83
2023/06/22 13:29:53;;;;;;;6.20;4.10;;;;;;;37.04;28.57;100727.44;222104;1267;140142;-82
2023/06/22 13:34:53;;;;;;;6.00;3.90;;;;;;;35.89;29.13;100724.12;223453;1264;139194;-80
2023/06/22 13:39:55;;;;;;;9.10;4.30;;;;;;;35.58;30.53;100719.34;223120;1264;139897;-82
2023/06/22 13:44:56;;;;;;;8.20;4.40;;;;;;;35.24;30.39;100732.09;223629;1267;138315;-81
2023/06/22 13:49:57;;;;;;;7.00;4.10;;;;;;;34.93;31.26;100724.14;223073;1265;140099;-82
2023/06/22 13:54:58;;;;;;;6.80;3.90;;;;;;;34.79;31.34;100719.36;223817;1264;96583;-82
2023/06/22 13:59:58;;;;;;;6.20;3.90;;;;;;;34.02;31.26;100710.30;223137;1264;140667;-81
2023/06/22 14:04:58;;;;;;;9.00;4.00;;;;;;;33.70;32.23;100715.73;223521;1264;138258;-80
2023/06/22 14:10:00;;;;;;;7.20;4.50;;;;;;;33.64;32.70;100719.97;223159;1263;140657;-82
2023/06/22 14:15:00;;;;;;;8.60;4.10;;;;;;;33.41;31.80;100720.42;223643;1265;138380;-81
2023/06/22 14:20:00;;;;;;;8.90;4.30;;;;;;;33.07;32.74;100720.17;222986;1264;140770;-82
2023/06/22 14:25:01;;;;;;;6.80;3.70;;;;;;;32.87;32.53;100714.07;223726;1264;97987;-82
2023/06/22 14:30:02;;;;;;;7.50;4.00;;;;;;;33.00;33.54;100708.67;223005;1263;140606;-81
2023/06/22 14:35:03;;;;;;;7.50;3.80;;;;;;;33.18;32.77;100702.11;223705;1264;138247;-81
2023/06/22 14:40:03;;;;;;;7.70;4.30;;;;;;;32.81;32.34;100701.48;223183;1264;140259;-80
2023/06/22 14:45:05;;;;;;;7.70;3.70;;;;;;;32.37;32.80;100698.94;223579;1267;138179;-82
2023/06/22 14:50:05;;;;;;;6.80;4.20;;;;;;;32.39;33.46;100694.17;223129;1268;140658;-83
2023/06/22 14:55:06;;;;;;;7.40;3.90;;;;;;;32.40;33.34;100693.34;223664;1264;96500;-80
2023/06/22 15:00:07;;;;;;;7.20;3.70;;;;;;;32.41;32.43;100689.25;223162;1264;139992;-80
2023/06/22 15:05:08;;;;;;;6.30;4.00;;;;;;;32.48;33.19;100686.06;223642;1264;138288;-82
2023/06/22 15:10:09;;;;;;;5.90;3.60;;;;;;;32.35;32.75;100684.65;223151;1264;141212;-81
2023/06/22 15:15:10;;;;;;;6.70;3.60;;;;;;;32.28;32.82;100685.38;223033;1268;138255;-81
2023/06/22 15:20:12;;;;;;;7.60;4.20;;;;;;;31.96;32.29;100676.88;222705;1264;235661;-83
2023/06/22 15:25:13;;;;;;;5.60;3.50;;;;;;;31.58;34.04;100668.56;223765;1264;96474;-83
2023/06/22 15:30:13;;;;;;;8.10;4.00;;;;;;;31.45;33.93;100660.08;223179;1264;140658;-80
2023/06/22 15:35:16;;;;;;;6.60;3.90;;;;;;;31.46;33.69;100663.70;223683;1264;138179;-80
2023/06/22 15:40:17;;;;;;;7.20;4.00;;;;;;;31.12;33.92;100664.10;223263;1264;140364;-82
2023/06/22 15:45:17;;;;;;;7.40;3.90;;;;;;;30.94;34.07;100665.38;223722;1264;138186;-83
2023/06/22 15:50:17;;;;;;;6.20;3.80;;;;;;;30.78;34.34;100664.69;223081;1267;141139;-84
2023/06/22 15:55:19;;;;;;;8.90;3.80;;;;;;;30.52;34.99;100657.58;223805;1264;96246;-82
2023/06/22 16:00:19;;;;;;;7.30;4.20;;;;;;;30.41;35.64;100650.64;223140;1264;142162;-83
2023/06/22 16:05:20;;;;;;;7.80;3.90;;;;;;;30.21;35.55;100649.33;223597;1264;138309;-84
2023/06/22 16:10:20;;;;;;;6.80;4.20;;;;;;;29.98;35.79;100641.59;223251;1264;140382;-82
2023/06/22 16:15:21;;;;;;;7.00;4.30;;;;;;;29.80;35.66;100637.23;223742;1264;138483;-84
2023/06/22 16:20:21;;;;;;;7.20;3.90;;;;;;;29.58;36.67;100627.96;223191;1264;141868;-83
2023/06/22 16:25:21;;;;;;;7.50;4.20;;;;;;;29.49;38.23;100624.25;223823;1264;97788;-83
2023/06/22 16:30:22;;;;;;;6.80;4.20;;;;;;;29.28;37.15;100619.66;222917;1264;140370;-83
2023/06/22 16:35:22;;;;;;;6.80;4.00;;;;;;;29.07;37.80;100620.79;223703;1264;138070;-83
2023/06/22 16:40:23;;;;;;;6.60;4.10;;;;;;;28.93;38.27;100609.28;223203;1264;140409;-83
2023/06/22 16:45:23;;;;;;;8.00;4.70;;;;;;;28.86;38.45;100601.81;223534;1264;138589;-85
2023/06/22 16:50:24;;;;;;;8.20;4.40;;;;;;;28.82;38.18;100590.02;223205;1264;140889;-83
2023/06/22 16:55:24;;;;;;;8.00;4.40;;;;;;;28.63;39.23;100582.23;223818;1264;97180;-82
2023/06/22 17:00:25;;;;;;;10.30;4.40;;;;;;;28.45;39.07;100569.85;223169;1264;141922;-83
2023/06/22 17:05:26;;;;;;;7.60;4.50;;;;;;;28.24;39.41;100567.91;222906;1263;138230;-83
2023/06/22 17:10:27;;;;;;;10.80;5.00;;;;;;;28.09;39.93;100561.70;222235;1267;140101;-83
2023/06/22 17:15:30;;;;;;;7.80;4.10;;;;;;;27.99;41.58;100550.67;223665;1263;139111;-83
2023/06/22 17:20:30;;;;;;;6.70;3.80;;;;;;;27.87;42.42;100547.73;223237;1263;139982;-84
2023/06/22 17:25:33;;;;;;;7.90;4.30;;;;;;;27.73;41.45;100547.80;223666;1264;97777;-84
2023/06/22 17:30:34;;;;;;;9.10;4.50;;;;;;;27.65;41.11;100550.77;223171;1263;140030;-85
2023/06/22 17:35:46;;;;;;;6.50;3.90;;;;;;;27.51;42.19;100552.60;223685;1263;139393;-85
2023/06/22 17:40:46;;;;;;;7.60;4.20;;;;;;;27.34;41.59;100546.61;223201;1264;139779;-85
2023/06/22 17:45:48;;;;;;;9.00;4.70;;;;;;;27.25;42.63;100542.10;223760;1264;138247;-85
2023/06/22 17:50:49;;;;;;;8.80;4.60;;;;;;;27.08;42.41;100536.58;223109;1263;139307;-85
2023/06/22 17:55:52;;;;;;;8.40;4.60;;;;;;;26.90;42.47;100538.23;223670;1264;138156;-85
2023/06/22 18:00:52;;;;;;;7.00;4.10;;;;;;;26.79;42.38;100527.78;223223;1263;140996;-85
2023/06/22 18:05:54;;;;;;;7.50;4.50;;;;;;;26.73;42.99;100511.12;223746;1264;139053;-85
2023/06/22 18:10:58;;;;;;;8.30;4.00;;;;;;;26.63;43.30;100509.61;223225;1263;140514;-85
2023/06/22 18:16:01;;;;;;;7.10;4.10;;;;;;;26.54;43.47;100507.15;223652;1264;138258;-85
2023/06/22 18:21:04;;;;;;;10.40;4.60;;;;;;;26.47;43.73;100505.52;223067;1264;139898;-85
2023/06/22 18:26:05;;;;;;;8.00;3.90;;;;;;;26.38;43.91;100505.17;223675;1264;139318;-85
2023/06/22 18:31:06;;;;;;;6.70;3.70;;;;;;;26.30;44.39;100501.11;223264;1264;141243;-85
2023/06/22 18:36:09;;;;;;;8.00;4.10;;;;;;;26.20;44.96;100491.47;223549;1264;138243;-85
2023/06/22 18:41:23;;;;;;;7.30;3.70;;;;;;;26.04;45.44;100485.85;223024;1264;140945;-84
2023/06/22 18:46:37;;;;;;;10.60;4.20;;;;;;;25.87;46.86;100473.58;223547;1263;138634;-85
2023/06/22 18:51:55;;;;;;;7.10;3.80;;;;;;;25.68;47.16;100460.18;222313;1264;140842;-86
2023/06/22 18:56:57;;;;;;;8.70;4.20;;;;;;;25.52;47.93;100461.25;223297;1263;138349;-85
2023/06/22 19:02:00;;;;;;;7.60;4.10;;;;;;;25.34;48.14;100463.38;223120;1263;140503;-86
2023/06/22 19:07:01;;;;;;;6.80;4.00;;;;;;;25.19;48.87;100464.29;223734;1264;104836;-87
2023/06/22 19:12:20;;;;;;;7.80;4.00;;;;;;;25.08;50.31;100474.56;222952;1264;140936;-86
2023/06/22 19:17:21;;;;;;;8.70;4.70;;;;;;;24.93;51.08;100476.58;223666;1264;138522;-88
2023/06/22 19:22:45;;;;;;;8.40;3.70;;;;;;;24.79;51.32;100466.13;223166;1263;139958;-86
2023/06/22 19:27:52;;;;;;;9.70;4.60;;;;;;;24.60;51.84;100470.64;223600;1264;138375;-86
2023/06/22 19:32:55;;;;;;;11.00;4.80;;;;;;;24.48;52.80;100460.47;223097;1264;141226;-85
2023/06/22 19:37:55;;;;;;;9.80;4.90;;;;;;;24.35;53.88;100468.76;223710;1264;138336;-86
2023/06/22 19:42:56;;;;;;;7.00;4.10;;;;;;;24.19;54.56;100472.80;223289;1264;141317;-86
2023/06/22 19:47:56;;;;;;;9.80;5.10;;;;;;;24.02;54.99;100468.51;223752;1264;138166;-86
2023/06/22 19:52:57;;;;;;;8.30;4.20;;;;;;;23.88;55.91;100458.30;223114;1264;139552;-86
2023/06/22 19:57:58;;;;;;;7.00;4.30;;;;;;;23.72;56.56;100443.40;223743;1263;138150;-86
2023/06/22 20:02:58;;;;;;;11.20;4.90;;;;;;;23.60;57.53;100440.21;223211;1264;141123;-87
2023/06/22 20:08:03;;;;;;;8.20;4.10;;;;;;;23.44;57.92;100437.30;223798;1263;138607;-86
2023/06/22 20:13:09;;;;;;;10.50;5.00;;;;;;;23.34;58.88;100439.55;223274;1264;140496;-87
2023/06/22 20:18:12;;;;;;;9.70;5.00;;;;;;;23.25;59.82;100439.67;223735;1263;138184;-86
2023/06/22 20:23:17;;;;;;;10.50;5.30;;;;;;;23.14;60.29;100440.92;223169;1264;140360;-86
2023/06/22 20:28:18;;;;;;;8.90;4.70;;;;;;;23.04;61.02;100431.55;223752;1264;138490;-87
2023/06/22 20:33:18;;;;;;;7.80;4.60;;;;;;;22.96;61.37;100432.40;223304;1263;140489;-87
2023/06/22 20:38:22;;;;;;;10.90;5.50;;;;;;;22.83;61.79;100436.83;223863;1264;138298;-87
2023/06/22 20:43:23;;;;;;;9.80;5.40;;;;;;;22.73;62.31;100441.80;221886;1264;140265;-87
2023/06/22 20:48:24;;;;;;;11.90;5.50;;;;;;;22.63;62.96;100445.14;223596;1263;137987;-87
2023/06/22 20:53:24;;;;;;;9.10;5.20;;;;;;;22.53;63.45;100449.52;223107;1264;140666;-87
2023/06/22 20:58:25;;;;;;;11.30;5.80;;;;;;;22.38;63.42;100429.96;223769;1263;138527;-86
2023/06/22 21:03:25;;;;;;;9.80;5.10;;;;;;;22.29;63.25;100413.55;223247;1264;140250;-87
2023/06/22 21:08:26;;;;;;;10.40;5.70;;;;;;;22.21;63.43;100409.54;223839;1264;138555;-87
2023/06/22 21:13:27;;;;;;;9.60;5.30;;;;;;;22.15;63.12;100411.12;223389;1264;140391;-88
2023/06/22 21:18:28;;;;;;;9.10;5.20;;;;;;;22.09;63.16;100407.95;223809;1263;138140;-86
2023/06/22 21:23:28;;;;;;;9.40;5.40;;;;;;;22.04;63.26;100401.91;223273;1264;140433;-86
2023/06/22 21:28:29;;;;;;;9.60;5.40;;;;;;;22.00;62.16;100394.98;223845;1264;138243;-86
2023/06/22 21:33:29;;;;;;;11.00;5.50;;;;;;;22.01;61.39;100398.16;223310;1264;140437;-86
2023/06/22 21:38:33;;;;;;;10.60;5.90;;;;;;;22.02;60.98;100406.63;223649;1264;138383;-88
2023/06/22 21:43:35;;;;;;;10.80;5.80;;;;;;;22.03;60.95;100402.52;223268;1263;140907;-86
2023/06/22 21:48:36;;;;;;;12.20;5.70;;;;;;;22.03;60.99;100400.80;223818;1264;138311;-87
2023/06/22 21:53:36;;;;;;;8.20;5.20;;;;;;;22.05;60.91;100399.79;223265;1264;143475;-82
2023/06/22 21:58:37;;;;;;;9.40;6.00;;;;;;;22.07;60.89;100399.40;223831;1264;138364;-83
2023/06/22 22:03:38;;;;;;;10.30;5.80;;;;;;;22.07;60.80;100390.44;223235;1263;139862;-82
2023/06/22 22:08:38;;;;;;;10.80;5.40;;;;;;;22.08;60.72;100388.05;223817;1264;138413;-82
2023/06/22 22:13:40;;;;;;;10.80;5.80;;;;;;;22.09;60.48;100372.81;223410;1263;140080;-82
2023/06/22 22:18:41;;;;;;;8.90;5.30;;;;;;;22.09;60.44;100369.13;223808;1264;137902;-82
2023/06/22 22:23:41;;;;;;;12.30;5.80;;;;;;;22.10;59.94;100359.94;223216;1264;140102;-82
2023/06/22 22:28:41;;;;;;;13.90;5.90;;;;;;;22.13;59.48;100348.40;223032;1264;138465;-83
2023/06/22 22:33:43;;;;;;;9.40;5.70;;;;;;;22.14;58.83;100336.73;222814;1264;140274;-83
2023/06/22 22:38:44;;;;;;;10.00;5.40;;;;;;;22.16;58.57;100333.95;223683;1264;138522;-82